sensor_id;sensor_type;location;lat;lon;timestamp;P1;durP1;ratioP1;P2;durP2;ratioP2
842;SDS011;407;48.884;9.126;2023-06-01T00:00:51;7.97;;;3.10;;
842;SDS011;407;48.884;9.126;2023-06-01T00:03:21;10.10;;;3.90;;
842;SDS011;407;48.884;9.126;2023-06-01T00:05:47;8.32;;;3.45;;
842;SDS011;407;48.884;9.126;2023-06-01T00:08:13;10.37;;;3.60;;
842;SDS011;407;48.884;9.126;2023-06-01T00:10:38;8.38;;;3.33;;
842;SDS011;407;48.884;9.126;2023-06-01T00:13:05;9.60;;;3.72;;
842;SDS011;407;48.884;9.126;2023-06-01T00:15:31;9.23;;;3.43;;
842;SDS011;407;48.884;9.126;2023-06-01T00:17:56;8.30;;;3.80;;
842;SDS011;407;48.884;9.126;2023-06-01T00:20:22;8.20;;;3.40;;
842;SDS011;407;48.884;9.126;2023-06-01T00:22:49;8.88;;;3.50;;
842;SDS011;407;48.884;9.126;2023-06-01T00:25:15;11.67;;;3.93;;
842;SDS011;407;48.884;9.126;2023-06-01T00:27:40;7.60;;;2.90;;
842;SDS011;407;48.884;9.126;2023-06-01T00:30:06;8.52;;;3.88;;
842;SDS011;407;48.884;9.126;2023-06-01T00:32:32;8.60;;;3.60;;
842;SDS011;407;48.884;9.126;2023-06-01T00:34:57;11.27;;;3.40;;
842;SDS011;407;48.884;9.126;2023-06-01T00:37:23;9.07;;;3.30;;
842;SDS011;407;48.884;9.126;2023-06-01T00:39:48;10.23;;;3.50;;
842;SDS011;407;48.884;9.126;2023-06-01T00:42:14;9.90;;;2.90;;
842;SDS011;407;48.884;9.126;2023-06-01T00:44:40;9.68;;;3.60;;
842;SDS011;407;48.884;9.126;2023-06-01T00:47:05;9.70;;;3.10;;
842;SDS011;407;48.884;9.126;2023-06-01T00:49:32;7.57;;;3.40;;
842;SDS011;407;48.884;9.126;2023-06-01T00:51:58;9.90;;;2.85;;
842;SDS011;407;48.884;9.126;2023-06-01T00:54:24;10.70;;;3.10;;
842;SDS011;407;48.884;9.126;2023-06-01T00:56:50;9.90;;;3.30;;
842;SDS011;407;48.884;9.126;2023-06-01T00:59:17;9.60;;;3.40;;
842;SDS011;407;48.884;9.126;2023-06-01T01:01:42;7.97;;;3.10;;
842;SDS011;407;48.884;9.126;2023-06-01T01:04:08;9.90;;;3.30;;
842;SDS011;407;48.884;9.126;2023-06-01T01:12:22;9.20;;;3.08;;
842;SDS011;407;48.884;9.126;2023-06-01T01:17:39;9.80;;;3.30;;
842;SDS011;407;48.884;9.126;2023-06-01T01:20:27;8.40;;;2.95;;
842;SDS011;407;48.884;9.126;2023-06-01T01:26:08;7.82;;;2.83;;
842;SDS011;407;48.884;9.126;2023-06-01T01:31:25;10.10;;;2.95;;
842;SDS011;407;48.884;9.126;2023-06-01T01:33:53;7.80;;;3.15;;
842;SDS011;407;48.884;9.126;2023-06-01T01:36:20;8.70;;;3.03;;
842;SDS011;407;48.884;9.126;2023-06-01T01:38:47;8.18;;;3.20;;
842;SDS011;407;48.884;9.126;2023-06-01T01:41:12;9.40;;;3.00;;
842;SDS011;407;48.884;9.126;2023-06-01T01:43:38;9.30;;;2.90;;
842;SDS011;407;48.884;9.126;2023-06-01T01:51:26;8.80;;;2.80;;
842;SDS011;407;48.884;9.126;2023-06-01T01:54:02;8.07;;;2.87;;
842;SDS011;407;48.884;9.126;2023-06-01T01:56:31;6.37;;;2.70;;
842;SDS011;407;48.884;9.126;2023-06-01T01:58:59;7.85;;;3.03;;
842;SDS011;407;48.884;9.126;2023-06-01T02:01:25;8.70;;;3.40;;
842;SDS011;407;48.884;9.126;2023-06-01T02:03:57;8.75;;;3.20;;
842;SDS011;407;48.884;9.126;2023-06-01T02:06:26;9.27;;;3.57;;
842;SDS011;407;48.884;9.126;2023-06-01T02:08:52;11.10;;;3.00;;
842;SDS011;407;48.884;9.126;2023-06-01T02:11:17;8.50;;;3.77;;
842;SDS011;407;48.884;9.126;2023-06-01T02:13:43;9.97;;;3.80;;
842;SDS011;407;48.884;9.126;2023-06-01T02:16:09;8.10;;;3.20;;
842;SDS011;407;48.884;9.126;2023-06-01T02:18:34;8.85;;;3.33;;
842;SDS011;407;48.884;9.126;2023-06-01T02:21:04;10.50;;;3.38;;
842;SDS011;407;48.884;9.126;2023-06-01T02:23:30;8.90;;;3.22;;
842;SDS011;407;48.884;9.126;2023-06-01T02:25:57;11.50;;;3.80;;
842;SDS011;407;48.884;9.126;2023-06-01T02:28:24;10.10;;;3.20;;
842;SDS011;407;48.884;9.126;2023-06-01T02:30:49;7.07;;;3.38;;
842;SDS011;407;48.884;9.126;2023-06-01T02:33:16;11.23;;;3.70;;
842;SDS011;407;48.884;9.126;2023-06-01T02:35:42;8.73;;;3.70;;
842;SDS011;407;48.884;9.126;2023-06-01T02:38:07;9.40;;;3.30;;
842;SDS011;407;48.884;9.126;2023-06-01T02:40:33;9.20;;;3.50;;
842;SDS011;407;48.884;9.126;2023-06-01T02:42:58;8.23;;;3.80;;
842;SDS011;407;48.884;9.126;2023-06-01T02:45:24;8.10;;;3.40;;
842;SDS011;407;48.884;9.126;2023-06-01T02:47:49;10.23;;;3.30;;
842;SDS011;407;48.884;9.126;2023-06-01T02:50:15;7.40;;;3.30;;
842;SDS011;407;48.884;9.126;2023-06-01T02:52:42;8.43;;;3.70;;
842;SDS011;407;48.884;9.126;2023-06-01T02:55:08;8.40;;;3.40;;
842;SDS011;407;48.884;9.126;2023-06-01T02:57:34;8.43;;;3.42;;
842;SDS011;407;48.884;9.126;2023-06-01T02:59:59;8.90;;;3.43;;
842;SDS011;407;48.884;9.126;2023-06-01T03:02:24;10.70;;;3.50;;
842;SDS011;407;48.884;9.126;2023-06-01T03:04:52;7.57;;;3.60;;
842;SDS011;407;48.884;9.126;2023-06-01T03:07:18;9.85;;;3.05;;
842;SDS011;407;48.884;9.126;2023-06-01T03:09:44;12.30;;;3.90;;
842;SDS011;407;48.884;9.126;2023-06-01T03:12:09;8.98;;;3.17;;
842;SDS011;407;48.884;9.126;2023-06-01T03:14:35;9.57;;;4.10;;
842;SDS011;407;48.884;9.126;2023-06-01T03:17:01;8.48;;;3.20;;
842;SDS011;407;48.884;9.126;2023-06-01T03:19:27;13.40;;;3.80;;
842;SDS011;407;48.884;9.126;2023-06-01T03:21:55;6.90;;;2.83;;
842;SDS011;407;48.884;9.126;2023-06-01T03:24:21;10.85;;;3.80;;
842;SDS011;407;48.884;9.126;2023-06-01T03:26:51;9.10;;;3.33;;
842;SDS011;407;48.884;9.126;2023-06-01T03:29:16;8.85;;;3.38;;
842;SDS011;407;48.884;9.126;2023-06-01T03:31:42;9.25;;;3.90;;
842;SDS011;407;48.884;9.126;2023-06-01T03:34:08;11.20;;;3.50;;
842;SDS011;407;48.884;9.126;2023-06-01T03:36:33;9.67;;;3.00;;
842;SDS011;407;48.884;9.126;2023-06-01T03:39:01;8.43;;;3.30;;
842;SDS011;407;48.884;9.126;2023-06-01T03:41:32;7.88;;;3.08;;
842;SDS011;407;48.884;9.126;2023-06-01T03:44:00;8.07;;;3.67;;
842;SDS011;407;48.884;9.126;2023-06-01T03:46:25;9.47;;;3.40;;
842;SDS011;407;48.884;9.126;2023-06-01T03:48:51;9.90;;;3.20;;
842;SDS011;407;48.884;9.126;2023-06-01T03:51:16;7.97;;;3.20;;
842;SDS011;407;48.884;9.126;2023-06-01T03:53:42;10.15;;;3.75;;
842;SDS011;407;48.884;9.126;2023-06-01T03:56:08;10.83;;;2.80;;
842;SDS011;407;48.884;9.126;2023-06-01T03:58:33;8.15;;;3.50;;
842;SDS011;407;48.884;9.126;2023-06-01T04:00:59;7.80;;;3.00;;
842;SDS011;407;48.884;9.126;2023-06-01T04:03:26;8.65;;;3.10;;
842;SDS011;407;48.884;9.126;2023-06-01T04:05:51;8.95;;;2.92;;
842;SDS011;407;48.884;9.126;2023-06-01T04:08:24;11.98;;;3.20;;
842;SDS011;407;48.884;9.126;2023-06-01T04:10:52;8.57;;;3.40;;
842;SDS011;407;48.884;9.126;2023-06-01T04:13:18;11.75;;;3.53;;
842;SDS011;407;48.884;9.126;2023-06-01T04:15:44;7.60;;;3.40;;
842;SDS011;407;48.884;9.126;2023-06-01T04:18:11;10.90;;;3.93;;
842;SDS011;407;48.884;9.126;2023-06-01T04:20:36;12.50;;;4.40;;
842;SDS011;407;48.884;9.126;2023-06-01T04:23:02;10.20;;;3.97;;
842;SDS011;407;48.884;9.126;2023-06-01T04:25:27;13.20;;;5.27;;
842;SDS011;407;48.884;9.126;2023-06-01T04:27:54;9.03;;;3.53;;
842;SDS011;407;48.884;9.126;2023-06-01T04:30:20;7.53;;;3.10;;
842;SDS011;407;48.884;9.126;2023-06-01T04:32:48;14.27;;;4.80;;
842;SDS011;407;48.884;9.126;2023-06-01T04:35:15;9.25;;;3.70;;
842;SDS011;407;48.884;9.126;2023-06-01T04:37:41;12.00;;;5.70;;
842;SDS011;407;48.884;9.126;2023-06-01T04:40:08;8.70;;;3.47;;
842;SDS011;407;48.884;9.126;2023-06-01T04:42:35;11.45;;;4.15;;
842;SDS011;407;48.884;9.126;2023-06-01T04:45:20;9.20;;;4.18;;
842;SDS011;407;48.884;9.126;2023-06-01T04:47:46;11.47;;;4.00;;
842;SDS011;407;48.884;9.126;2023-06-01T04:50:12;11.00;;;3.90;;
842;SDS011;407;48.884;9.126;2023-06-01T04:52:38;9.45;;;4.30;;
842;SDS011;407;48.884;9.126;2023-06-01T04:55:05;10.38;;;4.60;;
842;SDS011;407;48.884;9.126;2023-06-01T04:57:32;9.70;;;3.77;;
842;SDS011;407;48.884;9.126;2023-06-01T04:59:59;8.63;;;3.42;;
842;SDS011;407;48.884;9.126;2023-06-01T05:02:25;8.90;;;3.85;;
842;SDS011;407;48.884;9.126;2023-06-01T05:04:51;9.37;;;3.70;;
842;SDS011;407;48.884;9.126;2023-06-01T05:07:17;9.70;;;3.50;;
842;SDS011;407;48.884;9.126;2023-06-01T05:09:42;8.75;;;3.55;;
842;SDS011;407;48.884;9.126;2023-06-01T05:12:08;9.45;;;3.67;;
842;SDS011;407;48.884;9.126;2023-06-01T05:14:34;11.02;;;3.80;;
842;SDS011;407;48.884;9.126;2023-06-01T05:16:59;10.55;;;3.60;;
842;SDS011;407;48.884;9.126;2023-06-01T05:19:25;8.33;;;2.80;;
842;SDS011;407;48.884;9.126;2023-06-01T05:21:50;8.10;;;3.00;;
842;SDS011;407;48.884;9.126;2023-06-01T05:24:18;8.50;;;3.08;;
842;SDS011;407;48.884;9.126;2023-06-01T05:26:44;8.83;;;2.83;;
842;SDS011;407;48.884;9.126;2023-06-01T05:29:10;7.88;;;3.05;;
842;SDS011;407;48.884;9.126;2023-06-01T05:31:36;8.50;;;2.90;;
842;SDS011;407;48.884;9.126;2023-06-01T05:34:02;10.32;;;3.65;;
842;SDS011;407;48.884;9.126;2023-06-01T05:36:27;8.45;;;3.22;;
842;SDS011;407;48.884;9.126;2023-06-01T05:38:53;7.00;;;2.43;;
842;SDS011;407;48.884;9.126;2023-06-01T05:41:19;7.33;;;3.10;;
842;SDS011;407;48.884;9.126;2023-06-01T05:43:44;10.23;;;3.20;;
842;SDS011;407;48.884;9.126;2023-06-01T05:46:10;11.57;;;3.58;;
842;SDS011;407;48.884;9.126;2023-06-01T05:48:35;9.50;;;3.50;;
842;SDS011;407;48.884;9.126;2023-06-01T05:51:01;8.23;;;3.10;;
842;SDS011;407;48.884;9.126;2023-06-01T05:53:27;8.18;;;3.15;;
842;SDS011;407;48.884;9.126;2023-06-01T05:55:52;8.00;;;3.10;;
842;SDS011;407;48.884;9.126;2023-06-01T05:58:19;8.55;;;3.22;;
842;SDS011;407;48.884;9.126;2023-06-01T06:00:45;8.45;;;3.00;;
842;SDS011;407;48.884;9.126;2023-06-01T06:03:11;9.65;;;3.30;;
842;SDS011;407;48.884;9.126;2023-06-01T06:05:37;12.20;;;3.30;;
842;SDS011;407;48.884;9.126;2023-06-01T06:08:02;11.30;;;3.37;;
842;SDS011;407;48.884;9.126;2023-06-01T06:10:28;8.63;;;3.40;;
842;SDS011;407;48.884;9.126;2023-06-01T06:12:53;9.43;;;3.40;;
842;SDS011;407;48.884;9.126;2023-06-01T06:15:20;10.65;;;3.20;;
842;SDS011;407;48.884;9.126;2023-06-01T06:17:46;11.20;;;3.40;;
842;SDS011;407;48.884;9.126;2023-06-01T06:20:12;8.57;;;3.63;;
842;SDS011;407;48.884;9.126;2023-06-01T06:22:40;8.87;;;3.37;;
842;SDS011;407;48.884;9.126;2023-06-01T06:25:08;7.90;;;3.00;;
842;SDS011;407;48.884;9.126;2023-06-01T06:27:34;8.73;;;3.20;;
842;SDS011;407;48.884;9.126;2023-06-01T06:29:59;7.70;;;3.25;;
842;SDS011;407;48.884;9.126;2023-06-01T06:32:25;7.40;;;3.33;;
842;SDS011;407;48.884;9.126;2023-06-01T06:34:51;8.47;;;3.40;;
842;SDS011;407;48.884;9.126;2023-06-01T06:37:16;8.38;;;3.50;;
842;SDS011;407;48.884;9.126;2023-06-01T06:39:43;7.93;;;3.80;;
842;SDS011;407;48.884;9.126;2023-06-01T06:42:08;9.75;;;3.60;;
842;SDS011;407;48.884;9.126;2023-06-01T06:44:34;9.68;;;3.22;;
842;SDS011;407;48.884;9.126;2023-06-01T06:47:00;8.07;;;3.13;;
842;SDS011;407;48.884;9.126;2023-06-01T06:49:26;8.95;;;3.28;;
842;SDS011;407;48.884;9.126;2023-06-01T06:51:51;8.13;;;3.50;;
842;SDS011;407;48.884;9.126;2023-06-01T06:54:17;9.63;;;4.60;;
842;SDS011;407;48.884;9.126;2023-06-01T06:56:44;7.78;;;3.63;;
842;SDS011;407;48.884;9.126;2023-06-01T06:59:10;7.50;;;3.40;;
842;SDS011;407;48.884;9.126;2023-06-01T07:01:36;9.47;;;3.33;;
842;SDS011;407;48.884;9.126;2023-06-01T07:04:05;9.13;;;3.30;;
842;SDS011;407;48.884;9.126;2023-06-01T07:06:31;8.95;;;3.10;;
842;SDS011;407;48.884;9.126;2023-06-01T07:08:58;8.57;;;3.35;;
842;SDS011;407;48.884;9.126;2023-06-01T07:11:24;8.88;;;3.20;;
842;SDS011;407;48.884;9.126;2023-06-01T07:13:51;8.40;;;3.40;;
842;SDS011;407;48.884;9.126;2023-06-01T07:16:18;9.30;;;2.90;;
842;SDS011;407;48.884;9.126;2023-06-01T07:18:43;8.40;;;2.80;;
842;SDS011;407;48.884;9.126;2023-06-01T07:21:09;8.70;;;3.40;;
842;SDS011;407;48.884;9.126;2023-06-01T07:23:34;11.50;;;3.07;;
842;SDS011;407;48.884;9.126;2023-06-01T07:26:00;10.15;;;3.28;;
842;SDS011;407;48.884;9.126;2023-06-01T07:28:26;8.68;;;3.50;;
842;SDS011;407;48.884;9.126;2023-06-01T07:30:52;8.47;;;3.00;;
842;SDS011;407;48.884;9.126;2023-06-01T07:33:18;8.80;;;3.10;;
842;SDS011;407;48.884;9.126;2023-06-01T07:35:44;8.43;;;3.42;;
842;SDS011;407;48.884;9.126;2023-06-01T07:38:10;7.07;;;3.20;;
842;SDS011;407;48.884;9.126;2023-06-01T07:40:36;8.20;;;3.70;;
842;SDS011;407;48.884;9.126;2023-06-01T07:43:02;9.20;;;3.60;;
842;SDS011;407;48.884;9.126;2023-06-01T07:45:28;7.20;;;2.70;;
842;SDS011;407;48.884;9.126;2023-06-01T07:47:53;9.30;;;4.17;;
842;SDS011;407;48.884;9.126;2023-06-01T07:50:19;9.00;;;3.03;;
842;SDS011;407;48.884;9.126;2023-06-01T07:52:44;8.27;;;3.60;;
842;SDS011;407;48.884;9.126;2023-06-01T07:55:10;11.60;;;4.10;;
842;SDS011;407;48.884;9.126;2023-06-01T07:57:37;8.60;;;3.57;;
842;SDS011;407;48.884;9.126;2023-06-01T08:00:03;8.07;;;3.58;;
842;SDS011;407;48.884;9.126;2023-06-01T08:02:34;8.88;;;3.70;;
842;SDS011;407;48.884;9.126;2023-06-01T08:05:00;8.73;;;3.00;;
842;SDS011;407;48.884;9.126;2023-06-01T08:07:27;8.65;;;3.97;;
842;SDS011;407;48.884;9.126;2023-06-01T08:09:55;8.80;;;3.40;;
842;SDS011;407;48.884;9.126;2023-06-01T08:12:22;10.13;;;3.65;;
842;SDS011;407;48.884;9.126;2023-06-01T08:14:48;10.90;;;3.60;;
842;SDS011;407;48.884;9.126;2023-06-01T08:17:14;10.90;;;3.80;;
842;SDS011;407;48.884;9.126;2023-06-01T08:19:40;8.63;;;3.60;;
842;SDS011;407;48.884;9.126;2023-06-01T08:22:08;9.70;;;4.00;;
842;SDS011;407;48.884;9.126;2023-06-01T08:24:34;9.32;;;3.65;;
842;SDS011;407;48.884;9.126;2023-06-01T08:27:01;10.60;;;3.50;;
842;SDS011;407;48.884;9.126;2023-06-01T08:29:30;9.50;;;4.30;;
842;SDS011;407;48.884;9.126;2023-06-01T08:31:56;9.30;;;4.38;;
842;SDS011;407;48.884;9.126;2023-06-01T08:34:24;8.33;;;3.70;;
842;SDS011;407;48.884;9.126;2023-06-01T08:36:50;10.23;;;4.40;;
842;SDS011;407;48.884;9.126;2023-06-01T08:39:22;9.73;;;3.92;;
842;SDS011;407;48.884;9.126;2023-06-01T08:42:08;8.75;;;4.10;;
842;SDS011;407;48.884;9.126;2023-06-01T08:44:49;9.35;;;4.20;;
842;SDS011;407;48.884;9.126;2023-06-01T08:47:27;8.30;;;4.05;;
842;SDS011;407;48.884;9.126;2023-06-01T08:49:53;10.00;;;4.40;;
842;SDS011;407;48.884;9.126;2023-06-01T08:52:23;7.80;;;3.83;;
842;SDS011;407;48.884;9.126;2023-06-01T08:54:53;9.95;;;4.32;;
842;SDS011;407;48.884;9.126;2023-06-01T08:57:19;10.82;;;4.70;;
842;SDS011;407;48.884;9.126;2023-06-01T08:59:45;7.90;;;3.60;;
842;SDS011;407;48.884;9.126;2023-06-01T09:02:12;10.63;;;4.03;;
842;SDS011;407;48.884;9.126;2023-06-01T09:04:39;9.38;;;3.70;;
842;SDS011;407;48.884;9.126;2023-06-01T09:07:07;10.30;;;3.60;;
842;SDS011;407;48.884;9.126;2023-06-01T09:09:33;11.87;;;3.90;;
842;SDS011;407;48.884;9.126;2023-06-01T09:14:49;10.60;;;4.57;;
842;SDS011;407;48.884;9.126;2023-06-01T09:17:22;10.05;;;4.20;;
842;SDS011;407;48.884;9.126;2023-06-01T09:19:50;8.90;;;3.70;;
842;SDS011;407;48.884;9.126;2023-06-01T09:22:19;9.00;;;3.77;;
842;SDS011;407;48.884;9.126;2023-06-01T09:24:58;11.20;;;4.27;;
842;SDS011;407;48.884;9.126;2023-06-01T09:27:24;10.53;;;4.43;;
842;SDS011;407;48.884;9.126;2023-06-01T09:29:54;10.18;;;3.90;;
842;SDS011;407;48.884;9.126;2023-06-01T09:32:20;10.02;;;4.07;;
842;SDS011;407;48.884;9.126;2023-06-01T09:34:46;8.87;;;3.90;;
842;SDS011;407;48.884;9.126;2023-06-01T09:37:12;13.27;;;4.43;;
842;SDS011;407;48.884;9.126;2023-06-01T09:39:39;12.70;;;4.05;;
842;SDS011;407;48.884;9.126;2023-06-01T09:42:04;8.83;;;4.40;;
842;SDS011;407;48.884;9.126;2023-06-01T09:44:38;8.50;;;3.83;;
842;SDS011;407;48.884;9.126;2023-06-01T09:47:05;12.32;;;4.03;;
842;SDS011;407;48.884;9.126;2023-06-01T09:49:36;8.55;;;4.10;;
842;SDS011;407;48.884;9.126;2023-06-01T09:52:08;8.98;;;4.60;;
842;SDS011;407;48.884;9.126;2023-06-01T09:54:43;10.85;;;4.55;;
842;SDS011;407;48.884;9.126;2023-06-01T09:57:10;12.13;;;4.18;;
842;SDS011;407;48.884;9.126;2023-06-01T09:59:46;8.90;;;4.22;;
842;SDS011;407;48.884;9.126;2023-06-01T10:02:15;11.48;;;4.70;;
842;SDS011;407;48.884;9.126;2023-06-01T10:04:47;11.77;;;4.40;;
842;SDS011;407;48.884;9.126;2023-06-01T10:07:14;7.35;;;3.70;;
842;SDS011;407;48.884;9.126;2023-06-01T10:09:43;9.95;;;4.90;;
842;SDS011;407;48.884;9.126;2023-06-01T10:12:13;9.95;;;4.93;;
842;SDS011;407;48.884;9.126;2023-06-01T10:14:39;11.70;;;4.88;;
842;SDS011;407;48.884;9.126;2023-06-01T10:17:05;9.13;;;4.70;;
842;SDS011;407;48.884;9.126;2023-06-01T10:19:32;10.75;;;4.80;;
842;SDS011;407;48.884;9.126;2023-06-01T10:22:00;9.63;;;4.65;;
842;SDS011;407;48.884;9.126;2023-06-01T10:24:28;9.50;;;4.80;;
842;SDS011;407;48.884;9.126;2023-06-01T10:29:47;9.25;;;4.50;;
842;SDS011;407;48.884;9.126;2023-06-01T10:40:42;9.77;;;4.60;;
842;SDS011;407;48.884;9.126;2023-06-01T10:43:42;8.73;;;4.20;;
842;SDS011;407;48.884;9.126;2023-06-01T10:46:00;9.38;;;4.00;;
842;SDS011;407;48.884;9.126;2023-06-01T10:51:31;9.20;;;4.00;;
842;SDS011;407;48.884;9.126;2023-06-01T11:02:57;9.47;;;4.20;;
842;SDS011;407;48.884;9.126;2023-06-01T11:08:09;9.48;;;4.63;;
842;SDS011;407;48.884;9.126;2023-06-01T11:11:01;10.77;;;4.80;;
842;SDS011;407;48.884;9.126;2023-06-01T11:18:51;10.60;;;4.57;;
842;SDS011;407;48.884;9.126;2023-06-01T11:24:07;9.27;;;4.18;;
842;SDS011;407;48.884;9.126;2023-06-01T11:29:14;12.68;;;4.30;;
842;SDS011;407;48.884;9.126;2023-06-01T11:31:42;8.82;;;4.10;;
842;SDS011;407;48.884;9.126;2023-06-01T11:34:11;11.10;;;4.30;;
842;SDS011;407;48.884;9.126;2023-06-01T11:36:40;8.38;;;4.20;;
842;SDS011;407;48.884;9.126;2023-06-01T11:39:17;10.70;;;4.07;;
842;SDS011;407;48.884;9.126;2023-06-01T11:41:48;13.68;;;4.53;;
842;SDS011;407;48.884;9.126;2023-06-01T11:44:14;10.43;;;4.40;;
842;SDS011;407;48.884;9.126;2023-06-01T11:46:50;10.30;;;3.80;;
842;SDS011;407;48.884;9.126;2023-06-01T11:49:19;9.18;;;3.95;;
842;SDS011;407;48.884;9.126;2023-06-01T11:51:45;9.00;;;3.72;;
842;SDS011;407;48.884;9.126;2023-06-01T11:54:11;9.50;;;4.70;;
842;SDS011;407;48.884;9.126;2023-06-01T11:56:37;9.60;;;4.30;;
842;SDS011;407;48.884;9.126;2023-06-01T11:59:06;10.90;;;4.28;;
842;SDS011;407;48.884;9.126;2023-06-01T12:01:41;10.15;;;3.83;;
842;SDS011;407;48.884;9.126;2023-06-01T12:04:14;10.65;;;4.38;;
842;SDS011;407;48.884;9.126;2023-06-01T12:06:48;13.55;;;4.65;;
842;SDS011;407;48.884;9.126;2023-06-01T12:09:15;10.77;;;4.30;;
842;SDS011;407;48.884;9.126;2023-06-01T12:11:41;10.35;;;4.30;;
842;SDS011;407;48.884;9.126;2023-06-01T12:14:09;10.38;;;4.18;;
842;SDS011;407;48.884;9.126;2023-06-01T12:16:58;8.00;;;3.70;;
842;SDS011;407;48.884;9.126;2023-06-01T12:19:26;12.25;;;4.47;;
842;SDS011;407;48.884;9.126;2023-06-01T12:21:53;10.60;;;4.15;;
842;SDS011;407;48.884;9.126;2023-06-01T12:24:27;9.80;;;4.07;;
842;SDS011;407;48.884;9.126;2023-06-01T12:26:54;9.30;;;4.00;;
842;SDS011;407;48.884;9.126;2023-06-01T12:29:41;9.82;;;4.10;;
842;SDS011;407;48.884;9.126;2023-06-01T12:32:12;8.93;;;4.00;;
842;SDS011;407;48.884;9.126;2023-06-01T12:34:41;9.40;;;3.60;;
842;SDS011;407;48.884;9.126;2023-06-01T12:37:16;9.38;;;3.85;;
842;SDS011;407;48.884;9.126;2023-06-01T12:39:43;8.87;;;4.00;;
842;SDS011;407;48.884;9.126;2023-06-01T12:42:09;8.93;;;3.72;;
842;SDS011;407;48.884;9.126;2023-06-01T12:44:36;8.90;;;3.37;;
842;SDS011;407;48.884;9.126;2023-06-01T12:47:02;11.20;;;4.20;;
842;SDS011;407;48.884;9.126;2023-06-01T12:49:29;10.47;;;4.20;;
842;SDS011;407;48.884;9.126;2023-06-01T12:51:54;9.60;;;4.47;;
842;SDS011;407;48.884;9.126;2023-06-01T12:54:20;8.07;;;4.07;;
842;SDS011;407;48.884;9.126;2023-06-01T12:56:49;8.97;;;4.30;;
842;SDS011;407;48.884;9.126;2023-06-01T12:59:16;8.70;;;3.75;;
842;SDS011;407;48.884;9.126;2023-06-01T13:01:42;7.80;;;3.40;;
842;SDS011;407;48.884;9.126;2023-06-01T13:04:08;10.38;;;3.95;;
842;SDS011;407;48.884;9.126;2023-06-01T13:06:34;9.27;;;3.70;;
842;SDS011;407;48.884;9.126;2023-06-01T13:09:00;8.47;;;3.90;;
842;SDS011;407;48.884;9.126;2023-06-01T13:11:26;8.43;;;3.80;;
842;SDS011;407;48.884;9.126;2023-06-01T13:13:52;9.07;;;3.00;;
842;SDS011;407;48.884;9.126;2023-06-01T13:16:18;8.10;;;3.30;;
842;SDS011;407;48.884;9.126;2023-06-01T13:18:44;8.13;;;3.30;;
842;SDS011;407;48.884;9.126;2023-06-01T13:21:10;15.35;;;3.20;;
842;SDS011;407;48.884;9.126;2023-06-01T13:23:35;8.00;;;3.30;;
842;SDS011;407;48.884;9.126;2023-06-01T13:26:01;7.60;;;3.20;;
842;SDS011;407;48.884;9.126;2023-06-01T13:28:26;7.55;;;3.60;;
842;SDS011;407;48.884;9.126;2023-06-01T13:30:52;10.00;;;3.10;;
842;SDS011;407;48.884;9.126;2023-06-01T13:33:19;8.00;;;3.00;;
842;SDS011;407;48.884;9.126;2023-06-01T13:35:45;7.40;;;2.60;;
842;SDS011;407;48.884;9.126;2023-06-01T13:38:12;8.40;;;2.80;;
842;SDS011;407;48.884;9.126;2023-06-01T13:40:38;7.57;;;3.10;;
842;SDS011;407;48.884;9.126;2023-06-01T13:43:05;10.05;;;3.03;;
842;SDS011;407;48.884;9.126;2023-06-01T13:45:31;7.72;;;3.10;;
842;SDS011;407;48.884;9.126;2023-06-01T13:47:57;6.70;;;2.60;;
842;SDS011;407;48.884;9.126;2023-06-01T13:50:23;8.02;;;2.80;;
842;SDS011;407;48.884;9.126;2023-06-01T13:52:49;8.45;;;3.90;;
842;SDS011;407;48.884;9.126;2023-06-01T13:55:15;9.60;;;2.75;;
842;SDS011;407;48.884;9.126;2023-06-01T13:57:41;7.28;;;3.10;;
842;SDS011;407;48.884;9.126;2023-06-01T14:00:06;7.80;;;2.73;;
842;SDS011;407;48.884;9.126;2023-06-01T14:02:34;6.53;;;2.67;;
842;SDS011;407;48.884;9.126;2023-06-01T14:05:00;9.77;;;2.80;;
842;SDS011;407;48.884;9.126;2023-06-01T14:07:26;8.13;;;2.30;;
842;SDS011;407;48.884;9.126;2023-06-01T14:09:52;7.30;;;2.53;;
842;SDS011;407;48.884;9.126;2023-06-01T14:12:17;8.80;;;2.80;;
842;SDS011;407;48.884;9.126;2023-06-01T14:14:43;9.32;;;2.83;;
842;SDS011;407;48.884;9.126;2023-06-01T14:17:09;7.03;;;2.60;;
842;SDS011;407;48.884;9.126;2023-06-01T14:19:34;8.57;;;2.65;;
842;SDS011;407;48.884;9.126;2023-06-01T14:22:00;9.20;;;2.47;;
842;SDS011;407;48.884;9.126;2023-06-01T14:24:26;8.02;;;2.63;;
842;SDS011;407;48.884;9.126;2023-06-01T14:26:51;6.93;;;2.60;;
842;SDS011;407;48.884;9.126;2023-06-01T14:29:17;6.87;;;2.67;;
842;SDS011;407;48.884;9.126;2023-06-01T14:31:42;7.70;;;2.80;;
842;SDS011;407;48.884;9.126;2023-06-01T14:34:08;9.00;;;2.70;;
842;SDS011;407;48.884;9.126;2023-06-01T14:36:33;9.50;;;2.92;;
842;SDS011;407;48.884;9.126;2023-06-01T14:39:01;7.93;;;2.90;;
842;SDS011;407;48.884;9.126;2023-06-01T14:41:27;7.20;;;2.70;;
842;SDS011;407;48.884;9.126;2023-06-01T14:43:52;7.53;;;2.80;;
842;SDS011;407;48.884;9.126;2023-06-01T14:46:19;7.20;;;2.80;;
842;SDS011;407;48.884;9.126;2023-06-01T14:48:45;6.60;;;2.60;;
842;SDS011;407;48.884;9.126;2023-06-01T14:51:11;8.57;;;2.40;;
842;SDS011;407;48.884;9.126;2023-06-01T14:53:37;7.53;;;2.50;;
842;SDS011;407;48.884;9.126;2023-06-01T14:56:04;7.55;;;2.75;;
842;SDS011;407;48.884;9.126;2023-06-01T14:58:30;8.63;;;2.85;;
842;SDS011;407;48.884;9.126;2023-06-01T15:00:55;7.43;;;2.60;;
842;SDS011;407;48.884;9.126;2023-06-01T15:03:21;8.10;;;3.00;;
842;SDS011;407;48.884;9.126;2023-06-01T15:05:47;7.30;;;2.70;;
842;SDS011;407;48.884;9.126;2023-06-01T15:08:12;6.57;;;2.50;;
842;SDS011;407;48.884;9.126;2023-06-01T15:10:39;8.30;;;2.10;;
842;SDS011;407;48.884;9.126;2023-06-01T15:13:05;7.25;;;2.70;;
842;SDS011;407;48.884;9.126;2023-06-01T15:15:30;7.90;;;2.57;;
842;SDS011;407;48.884;9.126;2023-06-01T15:17:57;6.35;;;1.90;;
842;SDS011;407;48.884;9.126;2023-06-01T15:20:23;5.77;;;1.77;;
842;SDS011;407;48.884;9.126;2023-06-01T15:22:50;6.73;;;2.50;;
842;SDS011;407;48.884;9.126;2023-06-01T15:25:15;6.17;;;2.30;;
842;SDS011;407;48.884;9.126;2023-06-01T15:27:41;6.93;;;2.40;;
842;SDS011;407;48.884;9.126;2023-06-01T15:30:06;7.13;;;2.30;;
842;SDS011;407;48.884;9.126;2023-06-01T15:32:33;7.60;;;2.70;;
842;SDS011;407;48.884;9.126;2023-06-01T15:34:59;7.00;;;2.40;;
842;SDS011;407;48.884;9.126;2023-06-01T15:37:26;6.55;;;2.10;;
842;SDS011;407;48.884;9.126;2023-06-01T15:39:51;7.37;;;2.30;;
842;SDS011;407;48.884;9.126;2023-06-01T15:42:17;6.87;;;2.30;;
842;SDS011;407;48.884;9.126;2023-06-01T15:44:43;7.10;;;2.20;;
842;SDS011;407;48.884;9.126;2023-06-01T15:47:09;7.32;;;2.50;;
842;SDS011;407;48.884;9.126;2023-06-01T15:49:40;6.28;;;2.00;;
842;SDS011;407;48.884;9.126;2023-06-01T15:52:06;7.10;;;2.20;;
842;SDS011;407;48.884;9.126;2023-06-01T15:54:32;6.80;;;2.30;;
842;SDS011;407;48.884;9.126;2023-06-01T15:56:59;6.20;;;2.20;;
842;SDS011;407;48.884;9.126;2023-06-01T15:59:25;7.57;;;2.63;;
842;SDS011;407;48.884;9.126;2023-06-01T16:01:51;5.95;;;1.80;;
842;SDS011;407;48.884;9.126;2023-06-01T16:04:18;7.65;;;2.30;;
842;SDS011;407;48.884;9.126;2023-06-01T16:06:47;6.40;;;2.10;;
842;SDS011;407;48.884;9.126;2023-06-01T16:09:13;7.15;;;2.40;;
842;SDS011;407;48.884;9.126;2023-06-01T16:11:39;6.13;;;2.00;;
842;SDS011;407;48.884;9.126;2023-06-01T16:14:05;7.10;;;2.00;;
842;SDS011;407;48.884;9.126;2023-06-01T16:16:31;6.67;;;2.10;;
842;SDS011;407;48.884;9.126;2023-06-01T16:18:57;7.72;;;2.20;;
842;SDS011;407;48.884;9.126;2023-06-01T16:21:23;7.27;;;2.30;;
842;SDS011;407;48.884;9.126;2023-06-01T16:23:48;6.20;;;2.10;;
842;SDS011;407;48.884;9.126;2023-06-01T16:26:14;6.28;;;2.33;;
842;SDS011;407;48.884;9.126;2023-06-01T16:28:40;7.03;;;2.50;;
842;SDS011;407;48.884;9.126;2023-06-01T16:31:05;6.40;;;2.37;;
842;SDS011;407;48.884;9.126;2023-06-01T16:33:31;7.03;;;2.30;;
842;SDS011;407;48.884;9.126;2023-06-01T16:35:56;8.73;;;2.00;;
842;SDS011;407;48.884;9.126;2023-06-01T16:38:22;5.60;;;1.40;;
842;SDS011;407;48.884;9.126;2023-06-01T16:40:48;7.25;;;2.50;;